KMKO/MKO METAR and TAF weather

Enter ICAO airport designator
Station Type Date Time Source
KMKO METAR 2021/07/29 18:53 UTC NOAA

KMKO 291853Z AUTO VRB04KT 10SM FEW050 34/23 A3007 RMK AO2 SLP174 T03440233


Station Type Date Time Source
KMKO Decoded METAR 2021/07/29 18:53 UTC NOAA

MUSKOGEE DAVIS FIELD, OK, United States (KMKO) 35-39N 95-22W 185M
Jul 29, 2021 - 02:53 PM EDT / 2021.07.29 1853 UTC
Wind: Variable at 5 MPH (4 KT):0
Visibility: 10 mile(s):0
Sky conditions: mostly clear
Temperature: 93.9 F (34.4 C)
Heat index: 104.0 F (40.0 C):1
Dew Point: 73.9 F (23.3 C)
Relative Humidity: 52%
Pressure (altimeter): 30.07 in. Hg (1018 hPa)
ob: KMKO 291853Z AUTO VRB04KT 10SM FEW050 34/23 A3007 RMK AO2 SLP174 T03440233
cycle: 19

Station Type Date Time Source
KMKO TAF UTC NOAA

Error!

Example: see airport list